sensor_id;sensor_type;location;lat;lon;timestamp;pressure;altitude;pressure_sealevel;temperature;humidity
8890;BME280;4481;43.406;24.454;2022-09-01T00:01:45;75951.94;;;-144.09;100.00
8890;BME280;4481;43.406;24.454;2022-09-01T00:04:14;75960.28;;;-144.09;100.00
8890;BME280;4481;43.406;24.454;2022-09-01T00:06:42;75968.63;;;-144.09;100.00
8890;BME280;4481;43.406;24.454;2022-09-01T00:09:10;75983.25;;;-144.09;100.00
8890;BME280;4481;43.406;24.454;2022-09-01T00:11:38;75968.63;;;-144.09;100.00
8890;BME280;4481;43.406;24.454;2022-09-01T00:14:06;75956.09;;;-144.09;100.00
8890;BME280;4481;43.406;24.454;2022-09-01T00:16:33;75949.84;;;-144.09;100.00
8890;BME280;4481;43.406;24.454;2022-09-01T00:18:59;75947.75;;;-144.09;100.00
8890;BME280;4481;43.406;24.454;2022-09-01T00:21:27;75958.19;;;-144.09;100.00
8890;BME280;4481;43.406;24.454;2022-09-01T00:23:56;75972.81;;;-144.09;100.00
8890;BME280;4481;43.406;24.454;2022-09-01T00:26:22;75981.19;;;-144.09;100.00
8890;BME280;4481;43.406;24.454;2022-09-01T00:28:49;75972.81;;;-144.09;100.00
8890;BME280;4481;43.406;24.454;2022-09-01T00:31:16;75993.72;;;-144.09;100.00
8890;BME280;4481;43.406;24.454;2022-09-01T00:33:45;76010.44;;;-144.09;100.00
8890;BME280;4481;43.406;24.454;2022-09-01T00:36:11;76008.34;;;-144.09;100.00
8890;BME280;4481;43.406;24.454;2022-09-01T00:38:37;76004.16;;;-144.09;100.00
8890;BME280;4481;43.406;24.454;2022-09-01T00:41:05;75991.63;;;-144.09;100.00
8890;BME280;4481;43.406;24.454;2022-09-01T00:43:38;76014.59;;;-144.09;100.00
8890;BME280;4481;43.406;24.454;2022-09-01T00:46:06;76031.31;;;-144.09;100.00
8890;BME280;4481;43.406;24.454;2022-09-01T00:48:33;76035.50;;;-144.09;100.00
8890;BME280;4481;43.406;24.454;2022-09-01T00:51:00;76045.94;;;-144.09;100.00
8890;BME280;4481;43.406;24.454;2022-09-01T00:53:27;76041.75;;;-144.09;100.00
8890;BME280;4481;43.406;24.454;2022-09-01T00:55:55;76025.06;;;-144.09;100.00
8890;BME280;4481;43.406;24.454;2022-09-01T00:58:22;76008.34;;;-144.09;100.00
8890;BME280;4481;43.406;24.454;2022-09-01T01:00:50;75991.63;;;-144.09;100.00
8890;BME280;4481;43.406;24.454;2022-09-01T01:03:18;76004.16;;;-144.09;100.00
8890;BME280;4481;43.406;24.454;2022-09-01T01:05:48;76012.50;;;-144.09;100.00
8890;BME280;4481;43.406;24.454;2022-09-01T01:08:19;75995.81;;;-144.09;100.00
8890;BME280;4481;43.406;24.454;2022-09-01T01:10:53;76008.34;;;-144.09;100.00
8890;BME280;4481;43.406;24.454;2022-09-01T01:13:19;76060.56;;;-144.09;100.00
8890;BME280;4481;43.406;24.454;2022-09-01T01:15:47;76068.94;;;-144.09;100.00
8890;BME280;4481;43.406;24.454;2022-09-01T01:18:14;76100.25;;;-144.09;100.00
8890;BME280;4481;43.406;24.454;2022-09-01T01:20:41;76091.91;;;-144.09;100.00
8890;BME280;4481;43.406;24.454;2022-09-01T01:23:30;76081.47;;;-144.09;100.00
8890;BME280;4481;43.406;24.454;2022-09-01T01:26:05;76087.72;;;-144.09;100.00
8890;BME280;4481;43.406;24.454;2022-09-01T01:28:35;76091.91;;;-144.09;100.00
8890;BME280;4481;43.406;24.454;2022-09-01T01:31:04;76094.00;;;-144.09;100.00
8890;BME280;4481;43.406;24.454;2022-09-01T01:33:38;76094.00;;;-144.09;100.00
8890;BME280;4481;43.406;24.454;2022-09-01T01:36:07;76083.53;;;-144.09;100.00
8890;BME280;4481;43.406;24.454;2022-09-01T01:38:35;76077.28;;;-144.09;100.00
8890;BME280;4481;43.406;24.454;2022-09-01T01:41:02;76066.84;;;-144.09;100.00
8890;BME280;4481;43.406;24.454;2022-09-01T01:43:30;76068.94;;;-144.09;100.00
8890;BME280;4481;43.406;24.454;2022-09-01T01:45:57;76085.63;;;-144.09;100.00
8890;BME280;4481;43.406;24.454;2022-09-01T01:48:27;76081.47;;;-144.09;100.00
8890;BME280;4481;43.406;24.454;2022-09-01T01:50:55;76060.56;;;-144.09;100.00
8890;BME280;4481;43.406;24.454;2022-09-01T01:53:22;76064.75;;;-144.09;100.00
8890;BME280;4481;43.406;24.454;2022-09-01T01:55:49;76083.53;;;-144.09;100.00
8890;BME280;4481;43.406;24.454;2022-09-01T01:58:17;76104.44;;;-144.09;100.00
8890;BME280;4481;43.406;24.454;2022-09-01T02:00:44;76089.81;;;-144.09;100.00
8890;BME280;4481;43.406;24.454;2022-09-01T02:03:12;76077.28;;;-144.09;100.00
8890;BME280;4481;43.406;24.454;2022-09-01T02:05:42;76102.34;;;-144.09;100.00
8890;BME280;4481;43.406;24.454;2022-09-01T02:08:09;76106.53;;;-144.09;100.00
8890;BME280;4481;43.406;24.454;2022-09-01T02:10:39;76108.63;;;-144.09;100.00
8890;BME280;4481;43.406;24.454;2022-09-01T02:13:07;76108.63;;;-144.09;100.00
8890;BME280;4481;43.406;24.454;2022-09-01T02:15:38;76083.53;;;-144.09;100.00
8890;BME280;4481;43.406;24.454;2022-09-01T02:18:08;76079.38;;;-144.09;100.00
8890;BME280;4481;43.406;24.454;2022-09-01T02:20:34;76085.63;;;-144.09;100.00
8890;BME280;4481;43.406;24.454;2022-09-01T02:23:01;76089.81;;;-144.09;100.00
8890;BME280;4481;43.406;24.454;2022-09-01T02:25:34;76083.53;;;-144.09;100.00
8890;BME280;4481;43.406;24.454;2022-09-01T02:28:00;76071.00;;;-144.09;100.00
8890;BME280;4481;43.406;24.454;2022-09-01T02:30:28;76058.47;;;-144.09;100.00
8890;BME280;4481;43.406;24.454;2022-09-01T02:32:58;76045.94;;;-144.09;100.00
8890;BME280;4481;43.406;24.454;2022-09-01T02:35:24;76058.47;;;-144.09;100.00
8890;BME280;4481;43.406;24.454;2022-09-01T02:37:53;76060.56;;;-144.09;100.00
8890;BME280;4481;43.406;24.454;2022-09-01T02:40:25;76062.66;;;-144.09;100.00
8890;BME280;4481;43.406;24.454;2022-09-01T02:42:55;76056.38;;;-144.09;100.00
8890;BME280;4481;43.406;24.454;2022-09-01T02:45:22;76056.38;;;-144.09;100.00
8890;BME280;4481;43.406;24.454;2022-09-01T02:47:49;76048.03;;;-144.09;100.00
8890;BME280;4481;43.406;24.454;2022-09-01T02:50:17;76058.47;;;-144.09;100.00
8890;BME280;4481;43.406;24.454;2022-09-01T02:52:44;76075.19;;;-144.09;100.00
8890;BME280;4481;43.406;24.454;2022-09-01T02:55:13;76066.84;;;-144.09;100.00
8890;BME280;4481;43.406;24.454;2022-09-01T02:57:46;76068.94;;;-144.09;100.00
8890;BME280;4481;43.406;24.454;2022-09-01T03:00:14;76068.94;;;-144.09;100.00
8890;BME280;4481;43.406;24.454;2022-09-01T03:02:49;76079.38;;;-144.09;100.00
8890;BME280;4481;43.406;24.454;2022-09-01T03:05:17;76066.84;;;-144.09;100.00
8890;BME280;4481;43.406;24.454;2022-09-01T03:07:51;76079.38;;;-144.09;100.00
8890;BME280;4481;43.406;24.454;2022-09-01T03:10:19;76091.91;;;-144.09;100.00
8890;BME280;4481;43.406;24.454;2022-09-01T03:12:46;76098.16;;;-144.09;100.00
8890;BME280;4481;43.406;24.454;2022-09-01T03:15:13;76094.00;;;-144.09;100.00
8890;BME280;4481;43.406;24.454;2022-09-01T03:17:39;76091.91;;;-144.09;100.00
8890;BME280;4481;43.406;24.454;2022-09-01T03:20:07;76077.28;;;-144.09;100.00
8890;BME280;4481;43.406;24.454;2022-09-01T03:22:34;76083.53;;;-144.09;100.00
8890;BME280;4481;43.406;24.454;2022-09-01T03:25:00;76085.63;;;-144.09;100.00
8890;BME280;4481;43.406;24.454;2022-09-01T03:27:26;76106.53;;;-144.09;100.00
8890;BME280;4481;43.406;24.454;2022-09-01T03:29:52;76102.34;;;-144.09;100.00
8890;BME280;4481;43.406;24.454;2022-09-01T03:32:18;76106.53;;;-144.09;100.00
8890;BME280;4481;43.406;24.454;2022-09-01T03:34:45;76106.53;;;-144.09;100.00
8890;BME280;4481;43.406;24.454;2022-09-01T03:37:11;76114.88;;;-144.09;100.00
8890;BME280;4481;43.406;24.454;2022-09-01T03:39:38;76131.59;;;-144.09;100.00
8890;BME280;4481;43.406;24.454;2022-09-01T03:42:04;76139.97;;;-144.09;100.00
8890;BME280;4481;43.406;24.454;2022-09-01T03:44:33;76148.31;;;-144.09;100.00
8890;BME280;4481;43.406;24.454;2022-09-01T03:47:04;76150.41;;;-144.09;100.00
8890;BME280;4481;43.406;24.454;2022-09-01T03:49:34;76171.31;;;-144.09;100.00
8890;BME280;4481;43.406;24.454;2022-09-01T03:52:01;76185.94;;;-144.09;100.00
8890;BME280;4481;43.406;24.454;2022-09-01T03:54:28;76162.94;;;-144.09;100.00
8890;BME280;4481;43.406;24.454;2022-09-01T03:56:55;76188.00;;;-144.09;100.00
8890;BME280;4481;43.406;24.454;2022-09-01T03:59:24;76196.38;;;-144.09;100.00
8890;BME280;4481;43.406;24.454;2022-09-01T04:01:53;76213.09;;;-144.09;100.00
8890;BME280;4481;43.406;24.454;2022-09-01T04:04:19;76198.47;;;-144.09;100.00
8890;BME280;4481;43.406;24.454;2022-09-01T04:06:46;76171.31;;;-144.09;100.00
8890;BME280;4481;43.406;24.454;2022-09-01T04:09:14;76156.69;;;-144.09;100.00
8890;BME280;4481;43.406;24.454;2022-09-01T04:11:40;76158.75;;;-144.09;100.00
8890;BME280;4481;43.406;24.454;2022-09-01T04:14:09;76181.75;;;-144.09;100.00
8890;BME280;4481;43.406;24.454;2022-09-01T04:16:36;76194.28;;;-144.09;100.00
8890;BME280;4481;43.406;24.454;2022-09-01T04:19:21;76194.28;;;-144.09;100.00
8890;BME280;4481;43.406;24.454;2022-09-01T04:21:52;76192.19;;;-144.09;100.00
8890;BME280;4481;43.406;24.454;2022-09-01T04:24:19;76179.66;;;-144.09;100.00
8890;BME280;4481;43.406;24.454;2022-09-01T04:26:49;76175.47;;;-144.09;100.00
8890;BME280;4481;43.406;24.454;2022-09-01T04:29:17;76165.03;;;-144.09;100.00
8890;BME280;4481;43.406;24.454;2022-09-01T04:31:43;76150.41;;;-144.09;100.00
8890;BME280;4481;43.406;24.454;2022-09-01T04:34:10;76150.41;;;-144.09;100.00
8890;BME280;4481;43.406;24.454;2022-09-01T04:36:39;76137.88;;;-144.09;100.00
8890;BME280;4481;43.406;24.454;2022-09-01T04:39:06;76121.16;;;-144.09;100.00
8890;BME280;4481;43.406;24.454;2022-09-01T04:41:37;76121.16;;;-144.09;100.00
8890;BME280;4481;43.406;24.454;2022-09-01T04:44:04;76123.25;;;-144.09;100.00
8890;BME280;4481;43.406;24.454;2022-09-01T04:46:33;76121.16;;;-144.09;100.00
8890;BME280;4481;43.406;24.454;2022-09-01T04:49:00;76096.09;;;-144.09;100.00
8890;BME280;4481;43.406;24.454;2022-09-01T04:51:30;76096.09;;;-144.09;100.00
8890;BME280;4481;43.406;24.454;2022-09-01T04:53:57;76081.47;;;-144.09;100.00
8890;BME280;4481;43.406;24.454;2022-09-01T04:56:25;76077.28;;;-144.09;100.00
8890;BME280;4481;43.406;24.454;2022-09-01T04:58:52;76054.31;;;-144.09;100.00
8890;BME280;4481;43.406;24.454;2022-09-01T05:01:22;76022.97;;;-144.09;100.00
8890;BME280;4481;43.406;24.454;2022-09-01T05:03:50;76014.59;;;-144.09;100.00
8890;BME280;4481;43.406;24.454;2022-09-01T05:06:27;75989.53;;;-144.09;100.00
8890;BME280;4481;43.406;24.454;2022-09-01T05:08:53;75968.63;;;-144.09;100.00
8890;BME280;4481;43.406;24.454;2022-09-01T05:11:24;75956.09;;;-144.09;100.00
8890;BME280;4481;43.406;24.454;2022-09-01T05:13:51;75935.22;;;-144.09;100.00
8890;BME280;4481;43.406;24.454;2022-09-01T05:16:20;75918.50;;;-144.09;100.00
8890;BME280;4481;43.406;24.454;2022-09-01T05:18:51;75891.34;;;-144.09;100.00
8890;BME280;4481;43.406;24.454;2022-09-01T05:21:19;75876.72;;;-144.09;100.00
8890;BME280;4481;43.406;24.454;2022-09-01T05:23:47;75855.81;;;-144.09;100.00
8890;BME280;4481;43.406;24.454;2022-09-01T05:26:17;75826.56;;;-144.09;100.00
8890;BME280;4481;43.406;24.454;2022-09-01T05:28:45;75801.50;;;-144.09;100.00
8890;BME280;4481;43.406;24.454;2022-09-01T05:31:12;75778.53;;;-144.09;99.86
8890;BME280;4481;43.406;24.454;2022-09-01T05:33:38;75759.72;;;-144.09;99.22
8890;BME280;4481;43.406;24.454;2022-09-01T05:36:11;75728.38;;;-144.09;98.63
8890;BME280;4481;43.406;24.454;2022-09-01T05:38:38;75720.03;;;-144.09;98.10
8890;BME280;4481;43.406;24.454;2022-09-01T05:41:07;75699.16;;;-144.09;97.42
8890;BME280;4481;43.406;24.454;2022-09-01T05:43:35;75686.59;;;-144.09;96.86
8890;BME280;4481;43.406;24.454;2022-09-01T05:46:06;75651.09;;;-144.09;96.29
8890;BME280;4481;43.406;24.454;2022-09-01T05:48:34;75619.75;;;-144.09;95.14
8890;BME280;4481;43.406;24.454;2022-09-01T05:51:05;75590.50;;;-144.09;94.57
8890;BME280;4481;43.406;24.454;2022-09-01T05:53:33;75563.34;;;-144.09;94.22
8890;BME280;4481;43.406;24.454;2022-09-01T05:56:00;75540.38;;;-144.09;93.38
8890;BME280;4481;43.406;24.454;2022-09-01T05:58:32;75511.13;;;-144.09;92.83
8890;BME280;4481;43.406;24.454;2022-09-01T06:00:59;75486.06;;;-144.09;91.37
8890;BME280;4481;43.406;24.454;2022-09-01T06:03:26;75458.91;;;-144.09;91.17
8890;BME280;4481;43.406;24.454;2022-09-01T06:05:53;75433.84;;;-144.09;90.46
8890;BME280;4481;43.406;24.454;2022-09-01T06:08:21;75400.44;;;-144.09;90.50
8890;BME280;4481;43.406;24.454;2022-09-01T06:10:49;75375.34;;;-144.09;89.55
8890;BME280;4481;43.406;24.454;2022-09-01T06:13:15;75354.47;;;-144.09;88.76
8890;BME280;4481;43.406;24.454;2022-09-01T06:15:47;75371.19;;;-144.09;88.36
8890;BME280;4481;43.406;24.454;2022-09-01T06:18:14;75335.66;;;-144.09;87.85
8890;BME280;4481;43.406;24.454;2022-09-01T06:20:44;75304.34;;;-144.09;87.33
8890;BME280;4481;43.406;24.454;2022-09-01T06:23:12;75277.19;;;-144.09;86.89
8890;BME280;4481;43.406;24.454;2022-09-01T06:25:43;75327.31;;;-144.09;85.23
8890;BME280;4481;43.406;24.454;2022-09-01T06:28:12;75333.59;;;-144.09;85.97
8890;BME280;4481;43.406;24.454;2022-09-01T06:30:39;75348.22;;;-144.09;86.15
8890;BME280;4481;43.406;24.454;2022-09-01T06:33:08;75371.19;;;-144.09;87.70
8890;BME280;4481;43.406;24.454;2022-09-01T06:35:35;75392.06;;;-144.09;87.84
8890;BME280;4481;43.406;24.454;2022-09-01T06:38:01;75371.19;;;-144.09;88.07
8890;BME280;4481;43.406;24.454;2022-09-01T06:40:29;75402.50;;;-144.09;87.72
8890;BME280;4481;43.406;24.454;2022-09-01T06:42:56;75412.97;;;-144.09;88.91
8890;BME280;4481;43.406;24.454;2022-09-01T06:45:27;75440.13;;;-144.09;88.90
8890;BME280;4481;43.406;24.454;2022-09-01T06:47:53;75442.19;;;-144.09;89.68
8890;BME280;4481;43.406;24.454;2022-09-01T06:50:21;75389.97;;;-144.09;88.37
8890;BME280;4481;43.406;24.454;2022-09-01T06:52:48;75400.44;;;-144.09;89.36
8890;BME280;4481;43.406;24.454;2022-09-01T06:55:26;75402.50;;;-144.09;88.74
8890;BME280;4481;43.406;24.454;2022-09-01T06:57:58;75412.97;;;-144.09;89.20
8890;BME280;4481;43.406;24.454;2022-09-01T07:00:24;75358.66;;;-144.09;88.84
8890;BME280;4481;43.406;24.454;2022-09-01T07:02:53;75298.06;;;-144.09;87.80
8890;BME280;4481;43.406;24.454;2022-09-01T07:05:21;75210.34;;;-144.09;86.23
8890;BME280;4481;43.406;24.454;2022-09-01T07:07:48;75312.69;;;-144.09;86.35
8890;BME280;4481;43.406;24.454;2022-09-01T07:10:16;75346.13;;;-144.09;88.05
8890;BME280;4481;43.406;24.454;2022-09-01T07:12:45;75314.78;;;-144.09;87.78
8890;BME280;4481;43.406;24.454;2022-09-01T07:15:12;75310.59;;;-144.09;87.49
8890;BME280;4481;43.406;24.454;2022-09-01T07:17:40;75279.28;;;-144.09;87.22
8890;BME280;4481;43.406;24.454;2022-09-01T07:20:09;75264.66;;;-144.09;87.34
8890;BME280;4481;43.406;24.454;2022-09-01T07:22:36;75291.81;;;-144.09;88.13
8890;BME280;4481;43.406;24.454;2022-09-01T07:25:02;75245.84;;;-144.09;87.89
8890;BME280;4481;43.406;24.454;2022-09-01T07:27:29;75218.69;;;-144.09;86.99
8890;BME280;4481;43.406;24.454;2022-09-01T07:29:55;75260.47;;;-144.09;88.13
8890;BME280;4481;43.406;24.454;2022-09-01T07:32:21;75243.75;;;-144.09;88.52
8890;BME280;4481;43.406;24.454;2022-09-01T07:34:48;75206.16;;;-144.09;87.15
8890;BME280;4481;43.406;24.454;2022-09-01T07:37:14;75262.56;;;-144.09;88.51
8890;BME280;4481;43.406;24.454;2022-09-01T07:39:47;75281.38;;;-144.09;88.83
8890;BME280;4481;43.406;24.454;2022-09-01T07:42:15;75231.22;;;-144.09;87.72
8890;BME280;4481;43.406;24.454;2022-09-01T07:44:42;75224.97;;;-144.09;87.19
8890;BME280;4481;43.406;24.454;2022-09-01T07:47:09;75260.47;;;-144.09;88.33
8890;BME280;4481;43.406;24.454;2022-09-01T07:49:36;75254.22;;;-144.09;88.36
8890;BME280;4481;43.406;24.454;2022-09-01T07:52:02;75239.59;;;-144.09;88.52
8890;BME280;4481;43.406;24.454;2022-09-01T07:54:30;75243.75;;;-144.09;87.52
8890;BME280;4481;43.406;24.454;2022-09-01T07:56:58;75337.75;;;-144.09;89.51
8890;BME280;4481;43.406;24.454;2022-09-01T07:59:24;75329.41;;;-144.09;90.52
8890;BME280;4481;43.406;24.454;2022-09-01T08:01:52;75264.66;;;-144.09;89.02
8890;BME280;4481;43.406;24.454;2022-09-01T08:04:18;75224.97;;;-144.09;87.93
8890;BME280;4481;43.406;24.454;2022-09-01T08:06:47;75206.16;;;-144.09;87.03
8890;BME280;4481;43.406;24.454;2022-09-01T08:09:13;75199.91;;;-144.09;86.98
8890;BME280;4481;43.406;24.454;2022-09-01T08:11:40;75235.41;;;-144.09;87.39
8890;BME280;4481;43.406;24.454;2022-09-01T08:14:07;75241.69;;;-144.09;87.19
8890;BME280;4481;43.406;24.454;2022-09-01T08:16:33;75210.34;;;-144.09;86.94
8890;BME280;4481;43.406;24.454;2022-09-01T08:18:59;75183.19;;;-144.09;86.82
8890;BME280;4481;43.406;24.454;2022-09-01T08:21:27;75179.00;;;-144.09;86.28
8890;BME280;4481;43.406;24.454;2022-09-01T08:23:54;75193.63;;;-144.09;86.05
8890;BME280;4481;43.406;24.454;2022-09-01T08:26:22;75174.84;;;-144.09;85.90
8890;BME280;4481;43.406;24.454;2022-09-01T08:28:50;75153.94;;;-144.09;85.79
8890;BME280;4481;43.406;24.454;2022-09-01T08:31:18;75133.06;;;-144.09;85.54
8890;BME280;4481;43.406;24.454;2022-09-01T08:33:46;75114.25;;;-144.09;85.05
8890;BME280;4481;43.406;24.454;2022-09-01T08:36:14;75153.94;;;-144.09;85.58
8890;BME280;4481;43.406;24.454;2022-09-01T08:38:40;75118.44;;;-144.09;84.62
8890;BME280;4481;43.406;24.454;2022-09-01T08:41:17;75091.28;;;-144.09;83.83
8890;BME280;4481;43.406;24.454;2022-09-01T08:43:59;75158.13;;;-144.09;85.01
8890;BME280;4481;43.406;24.454;2022-09-01T08:46:33;75116.34;;;-144.09;83.93
8890;BME280;4481;43.406;24.454;2022-09-01T08:49:04;75085.03;;;-144.09;83.48
8890;BME280;4481;43.406;24.454;2022-09-01T08:51:36;75087.13;;;-144.09;83.66
8890;BME280;4481;43.406;24.454;2022-09-01T08:54:11;75085.03;;;-144.09;83.46
8890;BME280;4481;43.406;24.454;2022-09-01T08:56:43;75062.03;;;-144.09;83.81
8890;BME280;4481;43.406;24.454;2022-09-01T08:59:11;75022.38;;;-144.09;83.00
8890;BME280;4481;43.406;24.454;2022-09-01T09:01:42;75026.53;;;-144.09;81.08
8890;BME280;4481;43.406;24.454;2022-09-01T09:04:22;75093.38;;;-144.09;82.78
8890;BME280;4481;43.406;24.454;2022-09-01T09:06:57;75179.00;;;-144.09;84.83
8890;BME280;4481;43.406;24.454;2022-09-01T09:09:31;75197.81;;;-144.09;85.45
8890;BME280;4481;43.406;24.454;2022-09-01T09:12:13;75179.00;;;-144.09;85.33
8890;BME280;4481;43.406;24.454;2022-09-01T09:15:00;75110.09;;;-144.09;83.24
8890;BME280;4481;43.406;24.454;2022-09-01T09:17:34;75139.31;;;-144.09;84.30
8890;BME280;4481;43.406;24.454;2022-09-01T09:20:03;75139.31;;;-144.09;84.40
8890;BME280;4481;43.406;24.454;2022-09-01T09:22:29;75137.25;;;-144.09;84.37
8890;BME280;4481;43.406;24.454;2022-09-01T09:24:59;75080.84;;;-144.09;83.56
8890;BME280;4481;43.406;24.454;2022-09-01T09:27:28;75070.41;;;-144.09;82.42
8890;BME280;4481;43.406;24.454;2022-09-01T09:29:57;75097.56;;;-144.09;81.44
8890;BME280;4481;43.406;24.454;2022-09-01T09:32:42;75122.63;;;-144.09;82.18
8890;BME280;4481;43.406;24.454;2022-09-01T09:35:26;75179.00;;;-144.09;83.28
8890;BME280;4481;43.406;24.454;2022-09-01T09:37:54;75191.53;;;-144.09;84.63
8890;BME280;4481;43.406;24.454;2022-09-01T09:40:21;75149.78;;;-144.09;83.54
8890;BME280;4481;43.406;24.454;2022-09-01T09:43:05;75126.78;;;-144.09;83.28
8890;BME280;4481;43.406;24.454;2022-09-01T09:45:34;75128.88;;;-144.09;83.26
8890;BME280;4481;43.406;24.454;2022-09-01T09:48:05;75141.41;;;-144.09;82.83
8890;BME280;4481;43.406;24.454;2022-09-01T09:50:33;75114.25;;;-144.09;82.05
8890;BME280;4481;43.406;24.454;2022-09-01T09:53:13;75137.25;;;-144.09;82.70
8890;BME280;4481;43.406;24.454;2022-09-01T09:55:52;75112.19;;;-144.09;82.31
8890;BME280;4481;43.406;24.454;2022-09-01T09:58:20;75085.03;;;-144.09;81.79
8890;BME280;4481;43.406;24.454;2022-09-01T10:01:06;75041.16;;;-144.09;81.78
8890;BME280;4481;43.406;24.454;2022-09-01T10:03:39;75030.72;;;-144.09;80.78
8890;BME280;4481;43.406;24.454;2022-09-01T10:06:10;75028.63;;;-144.09;80.28
8890;BME280;4481;43.406;24.454;2022-09-01T10:08:38;75014.00;;;-144.09;80.01
8890;BME280;4481;43.406;24.454;2022-09-01T10:11:10;75005.66;;;-144.09;79.79
8890;BME280;4481;43.406;24.454;2022-09-01T10:13:38;74955.53;;;-144.09;78.99
8890;BME280;4481;43.406;24.454;2022-09-01T10:16:10;74959.72;;;-144.09;78.18
8890;BME280;4481;43.406;24.454;2022-09-01T10:18:40;74982.69;;;-144.09;78.56
8890;BME280;4481;43.406;24.454;2022-09-01T10:21:09;75005.66;;;-144.09;79.85
8890;BME280;4481;43.406;24.454;2022-09-01T10:23:37;75003.56;;;-144.09;78.71
8890;BME280;4481;43.406;24.454;2022-09-01T10:26:08;75018.19;;;-144.09;78.92
8890;BME280;4481;43.406;24.454;2022-09-01T10:28:43;74959.72;;;-144.09;78.61
8890;BME280;4481;43.406;24.454;2022-09-01T10:31:13;74970.16;;;-144.09;77.74
8890;BME280;4481;43.406;24.454;2022-09-01T10:33:40;74945.09;;;-144.09;77.79
8890;BME280;4481;43.406;24.454;2022-09-01T10:36:07;74920.03;;;-144.09;78.33
8890;BME280;4481;43.406;24.454;2022-09-01T10:38:34;74882.44;;;-144.09;77.53
8890;BME280;4481;43.406;24.454;2022-09-01T10:41:00;74828.13;;;-144.09;76.26
8890;BME280;4481;43.406;24.454;2022-09-01T10:43:40;74826.03;;;-144.09;76.27
8890;BME280;4481;43.406;24.454;2022-09-01T10:51:58;74901.22;;;-144.09;78.13
8890;BME280;4481;43.406;24.454;2022-09-01T10:54:52;74905.41;;;-144.09;78.61
8890;BME280;4481;43.406;24.454;2022-09-01T10:57:34;74884.50;;;-144.09;77.60
8890;BME280;4481;43.406;24.454;2022-09-01T11:00:45;74880.34;;;-144.09;77.66
8890;BME280;4481;43.406;24.454;2022-09-01T11:03:36;74899.13;;;-144.09;78.70
8890;BME280;4481;43.406;24.454;2022-09-01T11:06:05;74884.50;;;-144.09;77.21
8890;BME280;4481;43.406;24.454;2022-09-01T11:08:43;74911.66;;;-144.09;77.57
8890;BME280;4481;43.406;24.454;2022-09-01T11:11:20;74911.66;;;-144.09;77.82
8890;BME280;4481;43.406;24.454;2022-09-01T11:13:52;74880.34;;;-144.09;76.80
8890;BME280;4481;43.406;24.454;2022-09-01T11:16:37;74869.91;;;-144.09;77.25
8890;BME280;4481;43.406;24.454;2022-09-01T11:19:36;74851.09;;;-144.09;76.98
8890;BME280;4481;43.406;24.454;2022-09-01T11:22:21;74828.13;;;-144.09;76.82
8890;BME280;4481;43.406;24.454;2022-09-01T11:31:10;74811.41;;;-144.09;74.94
8890;BME280;4481;43.406;24.454;2022-09-01T11:33:49;74815.59;;;-144.09;73.85
8890;BME280;4481;43.406;24.454;2022-09-01T11:36:22;74800.97;;;-144.09;72.80
8890;BME280;4481;43.406;24.454;2022-09-01T11:38:58;74838.56;;;-144.09;74.67
8890;BME280;4481;43.406;24.454;2022-09-01T11:41:29;74821.88;;;-144.09;75.22
8890;BME280;4481;43.406;24.454;2022-09-01T11:43:59;74792.63;;;-144.09;74.42
8890;BME280;4481;43.406;24.454;2022-09-01T11:46:28;74838.56;;;-144.09;73.97
8890;BME280;4481;43.406;24.454;2022-09-01T11:48:57;74836.47;;;-144.09;72.55
8890;BME280;4481;43.406;24.454;2022-09-01T11:51:25;74832.31;;;-144.09;72.85
8890;BME280;4481;43.406;24.454;2022-09-01T11:53:58;74838.56;;;-144.09;72.73
8890;BME280;4481;43.406;24.454;2022-09-01T11:56:26;74813.50;;;-144.09;73.26
8890;BME280;4481;43.406;24.454;2022-09-01T11:58:53;74778.00;;;-144.09;73.34
8890;BME280;4481;43.406;24.454;2022-09-01T12:01:21;74746.69;;;-144.09;71.69
8890;BME280;4481;43.406;24.454;2022-09-01T12:03:49;74713.25;;;-144.09;71.98
8890;BME280;4481;43.406;24.454;2022-09-01T12:06:21;74765.47;;;-144.09;72.96
8890;BME280;4481;43.406;24.454;2022-09-01T12:08:54;74732.06;;;-144.09;73.41
8890;BME280;4481;43.406;24.454;2022-09-01T12:11:23;74681.94;;;-144.09;71.85
8890;BME280;4481;43.406;24.454;2022-09-01T12:13:57;74665.22;;;-144.09;70.45
8890;BME280;4481;43.406;24.454;2022-09-01T12:16:24;74704.91;;;-144.09;70.39
8890;BME280;4481;43.406;24.454;2022-09-01T12:18:52;74679.84;;;-144.09;71.03
8890;BME280;4481;43.406;24.454;2022-09-01T12:21:21;74667.31;;;-144.09;68.54
8890;BME280;4481;43.406;24.454;2022-09-01T12:23:49;74658.97;;;-144.09;68.92
8890;BME280;4481;43.406;24.454;2022-09-01T12:26:19;74652.69;;;-144.09;68.55
8890;BME280;4481;43.406;24.454;2022-09-01T12:28:47;74625.53;;;-144.09;67.54
8890;BME280;4481;43.406;24.454;2022-09-01T12:31:16;74600.50;;;-144.09;68.10
8890;BME280;4481;43.406;24.454;2022-09-01T12:33:44;74652.69;;;-144.09;69.11
8890;BME280;4481;43.406;24.454;2022-09-01T12:36:19;74675.66;;;-144.09;69.80
8890;BME280;4481;43.406;24.454;2022-09-01T12:38:46;74686.09;;;-144.09;70.12
8890;BME280;4481;43.406;24.454;2022-09-01T12:41:30;74707.00;;;-144.09;70.20
8890;BME280;4481;43.406;24.454;2022-09-01T12:44:25;74688.19;;;-144.09;69.94
8890;BME280;4481;43.406;24.454;2022-09-01T12:46:52;74665.22;;;-144.09;68.26
8890;BME280;4481;43.406;24.454;2022-09-01T12:49:22;74673.59;;;-144.09;69.13
8890;BME280;4481;43.406;24.454;2022-09-01T12:52:05;74661.06;;;-144.09;68.87
8890;BME280;4481;43.406;24.454;2022-09-01T12:54:31;74629.72;;;-144.09;69.22
8890;BME280;4481;43.406;24.454;2022-09-01T12:56:57;74596.31;;;-144.09;69.27
8890;BME280;4481;43.406;24.454;2022-09-01T12:59:25;74546.19;;;-144.09;68.20
8890;BME280;4481;43.406;24.454;2022-09-01T13:01:52;74548.28;;;-144.09;67.71
8890;BME280;4481;43.406;24.454;2022-09-01T13:04:27;74571.25;;;-144.09;68.33
8890;BME280;4481;43.406;24.454;2022-09-01T13:06:59;74600.50;;;-144.09;68.88
8890;BME280;4481;43.406;24.454;2022-09-01T13:09:26;74596.31;;;-144.09;68.91
8890;BME280;4481;43.406;24.454;2022-09-01T13:11:52;74596.31;;;-144.09;69.10